createdAt,value
2023-01-29T00:00:15.404Z,69.70
2023-01-29T00:02:43.966Z,69.70
2023-01-29T00:05:27.073Z,69.60
2023-01-29T00:07:57.746Z,69.70
2023-01-29T00:10:26.780Z,69.60
2023-01-29T00:12:55.300Z,69.70
2023-01-29T00:15:23.729Z,69.70
2023-01-29T00:17:52.773Z,69.90
2023-01-29T00:20:21.266Z,69.90
2023-01-29T00:22:49.996Z,70.20
2023-01-29T00:25:20.057Z,70.20
2023-01-29T00:27:48.357Z,70.20
2023-01-29T00:30:19.683Z,70.30
2023-01-29T00:32:48.514Z,70.30
2023-01-29T00:35:17.300Z,70.20
2023-01-29T00:37:45.562Z,70.20
2023-01-29T00:40:15.242Z,70.20
2023-01-29T00:43:03.555Z,70.20
2023-01-29T00:45:32.226Z,70.20
2023-01-29T00:48:00.782Z,70.10
2023-01-29T00:50:29.134Z,70.10
2023-01-29T00:52:57.516Z,69.90
2023-01-29T00:55:25.884Z,69.80
2023-01-29T00:57:55.810Z,70.00
2023-01-29T01:00:28.513Z,70.00
2023-01-29T01:03:07.778Z,70.00
2023-01-29T01:05:37.122Z,70.00
2023-01-29T01:08:25.862Z,70.30
2023-01-29T01:11:00.299Z,70.80
2023-01-29T01:13:30.806Z,70.80
2023-01-29T01:15:59.118Z,70.70
2023-01-29T01:18:30.263Z,70.80
2023-01-29T01:21:00.009Z,70.70
2023-01-29T01:23:28.350Z,70.80
2023-01-29T01:25:56.655Z,70.80
2023-01-29T01:28:25.077Z,70.70
2023-01-29T01:30:54.914Z,70.60
2023-01-29T01:33:23.378Z,70.60
2023-01-29T01:35:51.689Z,70.50
2023-01-29T01:38:20.035Z,70.70
2023-01-29T01:40:48.442Z,70.80
2023-01-29T01:43:16.798Z,70.60
2023-01-29T01:45:46.780Z,70.60
2023-01-29T01:48:19.504Z,69.70
2023-01-29T01:50:51.231Z,69.10
2023-01-29T01:53:23.984Z,69.20
2023-01-29T01:55:59.152Z,69.50
2023-01-29T01:58:30.395Z,69.40
2023-01-29T02:00:59.227Z,69.30
2023-01-29T02:03:48.230Z,69.50
2023-01-29T02:06:34.330Z,69.70
2023-01-29T02:09:24.658Z,69.60
2023-01-29T02:11:53.400Z,70.00
2023-01-29T02:14:22.249Z,69.90
2023-01-29T02:16:51.175Z,69.70
2023-01-29T02:19:29.860Z,70.10
2023-01-29T02:22:38.199Z,69.70
2023-01-29T02:25:59.934Z,69.90
2023-01-29T02:28:36.577Z,69.80
2023-01-29T02:31:14.043Z,69.70
2023-01-29T02:33:55.743Z,69.70
2023-01-29T02:36:33.580Z,69.90
2023-01-29T02:39:09.935Z,69.80
2023-01-29T02:41:43.532Z,70.10
2023-01-29T02:44:23.318Z,70.30
2023-01-29T02:46:59.260Z,70.10
2023-01-29T02:49:34.995Z,70.10
2023-01-29T02:52:09.723Z,70.20
2023-01-29T02:54:46.568Z,70.30
2023-01-29T02:57:23.123Z,70.40
2023-01-29T02:59:57.336Z,70.40
2023-01-29T03:02:32.625Z,70.40
2023-01-29T03:05:06.574Z,70.40
2023-01-29T03:07:44.289Z,70.40
2023-01-29T03:10:19.009Z,70.20
2023-01-29T03:12:55.813Z,69.70
2023-01-29T03:15:30.429Z,69.70
2023-01-29T03:18:03.810Z,69.40
2023-01-29T03:20:36.888Z,69.30
2023-01-29T03:23:10.392Z,69.30
2023-01-29T03:25:58.812Z,69.10
2023-01-29T03:28:47.291Z,68.70
2023-01-29T03:31:37.263Z,68.10
2023-01-29T03:34:16.557Z,68.30
2023-01-29T03:36:56.173Z,68.20
2023-01-29T03:39:28.564Z,67.90
2023-01-29T03:42:02.807Z,68.00
2023-01-29T03:44:37.377Z,68.00
2023-01-29T03:47:16.158Z,67.40
2023-01-29T03:49:56.668Z,67.40
2023-01-29T03:52:30.142Z,67.40
2023-01-29T03:55:07.360Z,67.80
2023-01-29T03:57:40.300Z,68.40
2023-01-29T04:00:16.126Z,68.60
2023-01-29T04:02:52.877Z,68.70
2023-01-29T04:05:26.098Z,68.30
2023-01-29T04:07:59.151Z,68.20
2023-01-29T04:10:31.092Z,68.30
2023-01-29T04:13:03.430Z,68.80
2023-01-29T04:15:36.510Z,68.70
2023-01-29T04:18:06.237Z,68.90
2023-01-29T04:20:36.089Z,68.70
2023-01-29T04:23:07.595Z,68.00
2023-01-29T04:25:43.872Z,67.60
2023-01-29T04:28:20.580Z,67.30
2023-01-29T04:30:55.214Z,67.10
2023-01-29T04:33:34.033Z,67.50
2023-01-29T04:36:20.110Z,67.70
2023-01-29T04:39:00.266Z,67.80
2023-01-29T04:41:35.336Z,68.00
2023-01-29T04:44:10.725Z,68.00
2023-01-29T04:46:48.942Z,67.80
2023-01-29T04:49:28.813Z,68.30
2023-01-29T04:52:03.358Z,68.20
2023-01-29T04:54:41.323Z,67.40
2023-01-29T04:57:15.853Z,66.90
2023-01-29T04:59:49.577Z,66.80
2023-01-29T05:02:20.748Z,66.70
2023-01-29T05:04:52.023Z,66.70
2023-01-29T05:07:22.004Z,66.70
2023-01-29T05:09:52.017Z,66.70
2023-01-29T05:12:20.400Z,67.70
2023-01-29T05:14:50.574Z,67.10
2023-01-29T05:17:21.353Z,67.60
2023-01-29T05:19:51.197Z,68.00
2023-01-29T05:22:22.892Z,67.90
2023-01-29T05:24:51.523Z,67.90
2023-01-29T05:27:39.986Z,68.10
2023-01-29T05:30:10.427Z,68.40
2023-01-29T05:32:39.824Z,68.60
2023-01-29T05:35:10.114Z,68.60
2023-01-29T05:37:38.594Z,68.60
2023-01-29T05:40:09.052Z,68.70
2023-01-29T05:42:37.367Z,68.40
2023-01-29T05:45:07.283Z,68.40
2023-01-29T05:47:35.679Z,68.50
2023-01-29T05:50:04.341Z,68.20
2023-01-29T05:52:34.176Z,68.40
2023-01-29T05:55:02.684Z,68.80
2023-01-29T05:57:31.027Z,68.70
2023-01-29T05:59:59.358Z,68.60
2023-01-29T06:02:30.312Z,68.50
2023-01-29T06:04:58.704Z,68.40
2023-01-29T06:07:27.242Z,68.30
2023-01-29T06:09:56.978Z,68.10
2023-01-29T06:12:25.296Z,68.00
2023-01-29T06:14:53.823Z,68.30
2023-01-29T06:17:22.121Z,68.40
2023-01-29T06:19:50.368Z,68.70
2023-01-29T06:22:18.755Z,68.80
2023-01-29T06:24:47.055Z,68.50
2023-01-29T06:27:16.844Z,68.40
2023-01-29T06:29:45.252Z,68.50
2023-01-29T06:32:13.613Z,68.40
2023-01-29T06:34:42.031Z,68.40
2023-01-29T06:37:10.317Z,68.60
2023-01-29T06:39:38.597Z,68.50
2023-01-29T06:42:07.035Z,68.40
2023-01-29T06:44:36.784Z,68.40
2023-01-29T06:47:05.397Z,68.20
2023-01-29T06:49:33.792Z,68.20
2023-01-29T06:52:02.037Z,68.50
2023-01-29T06:54:30.673Z,68.50
2023-01-29T06:56:59.154Z,68.30
2023-01-29T06:59:27.508Z,68.10
2023-01-29T07:01:57.510Z,68.30
2023-01-29T07:04:25.865Z,68.30
2023-01-29T07:06:54.158Z,68.30
2023-01-29T07:09:22.481Z,68.60
2023-01-29T07:11:50.921Z,68.30
2023-01-29T07:14:19.188Z,68.30
2023-01-29T07:16:47.515Z,68.60
2023-01-29T07:19:17.356Z,68.50
2023-01-29T07:21:45.846Z,68.40
2023-01-29T07:24:14.313Z,68.50
2023-01-29T07:26:42.675Z,68.90
2023-01-29T07:29:11.210Z,69.40
2023-01-29T07:31:39.673Z,69.60
2023-01-29T07:34:08.165Z,69.20
2023-01-29T07:36:38.431Z,68.60
2023-01-29T07:39:06.767Z,68.20
2023-01-29T07:41:35.098Z,68.20
2023-01-29T07:44:03.605Z,68.10
2023-01-29T07:46:31.860Z,68.40
2023-01-29T07:49:00.434Z,68.70
2023-01-29T07:51:28.838Z,68.80
2023-01-29T07:53:58.584Z,68.90
2023-01-29T07:56:27.114Z,68.70
2023-01-29T07:58:55.465Z,68.70
2023-01-29T08:01:24.000Z,68.80
2023-01-29T08:03:52.480Z,69.20
2023-01-29T08:06:20.785Z,70.00
2023-01-29T08:08:49.083Z,70.00
2023-01-29T08:11:19.385Z,70.10
2023-01-29T08:13:48.009Z,70.00
2023-01-29T08:16:16.641Z,70.10
2023-01-29T08:18:47.819Z,70.10
2023-01-29T08:21:16.584Z,70.20
2023-01-29T08:23:44.851Z,69.80
2023-01-29T08:26:13.188Z,69.50
2023-01-29T08:28:42.896Z,69.30
2023-01-29T08:31:16.004Z,69.60
2023-01-29T08:33:44.320Z,70.20
2023-01-29T08:36:12.765Z,70.00
2023-01-29T08:38:41.631Z,69.50
2023-01-29T08:41:10.566Z,69.20
2023-01-29T08:43:40.018Z,69.10
2023-01-29T08:46:10.533Z,69.10
2023-01-29T08:48:39.420Z,68.90
2023-01-29T08:51:08.450Z,68.80
2023-01-29T08:53:37.042Z,68.70
2023-01-29T08:56:05.888Z,68.90
2023-01-29T08:58:34.151Z,69.10
2023-01-29T09:01:09.979Z,69.50
2023-01-29T09:03:41.089Z,69.70
2023-01-29T09:06:11.470Z,69.70
2023-01-29T09:08:40.449Z,69.80
2023-01-29T09:11:09.155Z,69.90
2023-01-29T09:13:37.732Z,69.60
2023-01-29T09:16:06.716Z,69.70
2023-01-29T09:18:36.841Z,69.70
2023-01-29T09:21:05.836Z,69.30
2023-01-29T09:23:34.631Z,69.30
2023-01-29T09:26:03.383Z,69.50
2023-01-29T09:28:31.737Z,69.70
2023-01-29T09:31:03.289Z,69.50
2023-01-29T09:33:32.508Z,69.50
2023-01-29T09:36:04.255Z,69.20
2023-01-29T09:38:32.642Z,68.60
2023-01-29T09:41:10.792Z,68.60
2023-01-29T09:43:54.407Z,68.40
2023-01-29T09:46:29.639Z,68.20
2023-01-29T09:49:04.762Z,67.80
2023-01-29T09:51:41.422Z,67.80
2023-01-29T09:54:19.415Z,67.30
2023-01-29T09:56:49.651Z,67.20
2023-01-29T09:59:21.243Z,67.50
2023-01-29T10:02:01.101Z,68.00
2023-01-29T10:05:18.161Z,68.10
2023-01-29T10:08:19.853Z,68.20
2023-01-29T10:10:53.313Z,68.20
2023-01-29T10:13:30.970Z,67.90
2023-01-29T10:16:22.612Z,67.70
2023-01-29T10:19:17.555Z,67.30
2023-01-29T10:22:10.942Z,67.20
2023-01-29T10:24:40.767Z,67.00
2023-01-29T10:27:18.936Z,67.20
2023-01-29T10:29:51.661Z,67.20
2023-01-29T10:32:22.087Z,66.60
2023-01-29T10:34:53.681Z,66.70
2023-01-29T10:37:24.841Z,66.70
2023-01-29T10:39:53.211Z,66.00
2023-01-29T10:42:31.111Z,65.70
2023-01-29T10:45:20.308Z,66.00
2023-01-29T10:48:06.327Z,66.40
2023-01-29T10:50:47.102Z,66.40
2023-01-29T10:53:43.343Z,66.40
2023-01-29T10:56:25.920Z,66.30
2023-01-29T10:58:58.827Z,65.60
2023-01-29T11:01:29.961Z,65.50
2023-01-29T11:04:00.725Z,65.40
2023-01-29T11:06:32.277Z,65.20
2023-01-29T11:09:09.864Z,64.80
2023-01-29T11:11:45.186Z,64.20
2023-01-29T11:14:20.337Z,64.70
2023-01-29T11:16:50.117Z,65.20
2023-01-29T11:19:18.816Z,65.80
2023-01-29T11:21:57.949Z,66.10
2023-01-29T11:24:27.624Z,65.80
2023-01-29T11:27:00.009Z,65.70
2023-01-29T11:29:38.356Z,65.80
2023-01-29T11:32:09.734Z,65.90
2023-01-29T11:34:58.618Z,66.10
2023-01-29T11:37:35.110Z,66.20
2023-01-29T11:40:13.011Z,65.60
2023-01-29T11:42:41.305Z,64.80
2023-01-29T11:45:27.480Z,64.60
2023-01-29T11:47:57.644Z,64.40
2023-01-29T11:50:27.832Z,64.40
2023-01-29T11:52:56.602Z,64.30
2023-01-29T11:55:26.854Z,64.30
2023-01-29T11:58:02.938Z,64.10
2023-01-29T12:00:35.043Z,63.80
2023-01-29T12:03:12.542Z,63.60
2023-01-29T12:05:42.124Z,63.60
2023-01-29T12:08:18.479Z,63.40
2023-01-29T12:10:46.851Z,63.10
2023-01-29T12:13:26.769Z,63.00
2023-01-29T12:16:20.299Z,63.20
2023-01-29T12:18:52.864Z,64.00
2023-01-29T12:21:28.258Z,64.40
2023-01-29T12:24:00.591Z,64.50
2023-01-29T12:26:33.773Z,63.60
2023-01-29T12:29:18.377Z,63.20
2023-01-29T12:31:53.431Z,62.20
2023-01-29T12:34:28.865Z,61.80
2023-01-29T12:37:02.326Z,62.30
2023-01-29T12:39:32.655Z,62.40
2023-01-29T12:42:06.645Z,62.00
2023-01-29T12:44:42.684Z,61.40
2023-01-29T12:47:22.336Z,61.70
2023-01-29T12:49:55.159Z,62.10
2023-01-29T12:52:40.016Z,62.30
2023-01-29T12:55:31.582Z,62.70
2023-01-29T12:58:20.054Z,62.70
2023-01-29T13:01:01.664Z,62.30
2023-01-29T13:03:38.687Z,62.60
2023-01-29T13:06:11.645Z,62.70
2023-01-29T13:08:43.516Z,62.20
2023-01-29T13:11:20.470Z,61.70
2023-01-29T13:13:54.595Z,61.30
2023-01-29T13:16:28.082Z,61.20
2023-01-29T13:19:11.193Z,61.80
2023-01-29T13:21:44.125Z,61.80
2023-01-29T13:24:16.674Z,61.50
2023-01-29T13:26:47.153Z,60.90
2023-01-29T13:29:31.718Z,61.10
2023-01-29T13:32:02.013Z,61.60
2023-01-29T13:34:34.505Z,62.10
2023-01-29T13:37:04.689Z,61.80
2023-01-29T13:39:37.540Z,61.50
2023-01-29T13:42:19.403Z,61.10
2023-01-29T13:44:55.149Z,61.40
2023-01-29T13:47:29.246Z,61.70
2023-01-29T13:50:02.687Z,62.10
2023-01-29T13:52:40.223Z,62.50
2023-01-29T13:55:22.423Z,63.00
2023-01-29T13:57:56.050Z,63.00
2023-01-29T14:00:58.739Z,63.00
2023-01-29T14:04:04.853Z,63.00
2023-01-29T14:06:47.052Z,63.50
2023-01-29T14:09:37.136Z,63.50
2023-01-29T14:12:47.219Z,63.30
2023-01-29T14:16:01.265Z,63.40
2023-01-29T14:18:30.731Z,63.50
2023-01-29T14:21:05.169Z,63.50
2023-01-29T14:23:41.944Z,63.60
2023-01-29T14:26:32.600Z,63.50
2023-01-29T14:29:05.614Z,63.00
2023-01-29T14:31:41.789Z,63.80
2023-01-29T14:34:23.704Z,63.00
2023-01-29T14:36:55.724Z,63.00
2023-01-29T14:39:36.938Z,63.00
2023-01-29T14:42:16.910Z,63.00
2023-01-29T14:44:55.418Z,62.90
2023-01-29T14:47:45.580Z,62.80
2023-01-29T14:50:42.876Z,62.20
2023-01-29T14:53:14.874Z,61.90
2023-01-29T14:55:49.712Z,61.90
2023-01-29T14:58:24.059Z,61.80
2023-01-29T15:00:55.529Z,62.00
2023-01-29T15:03:33.375Z,62.00
2023-01-29T15:06:02.185Z,62.60
2023-01-29T15:08:37.591Z,61.50
2023-01-29T15:11:31.254Z,61.60
2023-01-29T15:14:11.370Z,61.90
2023-01-29T15:16:52.420Z,61.70
2023-01-29T15:19:25.773Z,61.80
2023-01-29T15:22:11.919Z,62.00
2023-01-29T15:24:41.979Z,62.10
2023-01-29T15:27:24.665Z,61.70
2023-01-29T15:29:58.827Z,61.40
2023-01-29T15:32:32.363Z,61.40
2023-01-29T15:35:02.040Z,61.80
2023-01-29T15:37:34.208Z,61.90
2023-01-29T15:40:03.654Z,61.90
2023-01-29T15:42:46.817Z,61.80
2023-01-29T15:45:31.821Z,61.90
2023-01-29T15:48:05.637Z,61.60
2023-01-29T15:50:37.841Z,61.60
2023-01-29T15:53:11.428Z,61.40
2023-01-29T15:55:41.515Z,61.70
2023-01-29T15:58:16.996Z,61.70
2023-01-29T16:00:51.753Z,61.80
2023-01-29T16:03:24.735Z,61.60
2023-01-29T16:05:54.017Z,61.60
2023-01-29T16:08:24.088Z,61.60
2023-01-29T16:10:56.609Z,61.60
2023-01-29T16:13:29.307Z,62.10
2023-01-29T16:15:59.996Z,61.40
2023-01-29T16:18:35.347Z,61.50
2023-01-29T16:21:09.365Z,61.70
2023-01-29T16:23:43.124Z,61.80
2023-01-29T16:26:18.071Z,61.60
2023-01-29T16:28:48.933Z,61.70
2023-01-29T16:31:23.844Z,61.70
2023-01-29T16:33:52.661Z,61.60
2023-01-29T16:36:23.863Z,62.10
2023-01-29T16:38:55.397Z,62.30
2023-01-29T16:41:32.693Z,62.20
2023-01-29T16:44:03.929Z,62.00
2023-01-29T16:46:37.744Z,62.40
2023-01-29T16:49:45.472Z,62.00
2023-01-29T16:52:19.884Z,61.50
2023-01-29T16:54:53.994Z,61.90
2023-01-29T16:57:29.656Z,62.20
2023-01-29T17:00:03.384Z,62.20
2023-01-29T17:02:34.573Z,62.50
2023-01-29T17:05:06.592Z,63.10
2023-01-29T17:07:35.958Z,63.10
2023-01-29T17:10:07.092Z,62.80
2023-01-29T17:13:01.214Z,63.00
2023-01-29T17:15:36.314Z,63.30
2023-01-29T17:18:13.099Z,63.20
2023-01-29T17:20:41.956Z,62.90
2023-01-29T17:23:10.218Z,62.90
2023-01-29T17:25:39.098Z,62.60
2023-01-29T17:28:10.604Z,62.80
2023-01-29T17:30:40.943Z,63.20
2023-01-29T17:33:14.424Z,63.40
2023-01-29T17:35:43.696Z,63.60
2023-01-29T17:38:24.277Z,63.90
2023-01-29T17:40:59.109Z,64.00
2023-01-29T17:43:27.517Z,64.30
2023-01-29T17:45:57.403Z,64.60
2023-01-29T17:48:28.560Z,64.60
2023-01-29T17:51:04.766Z,64.60
2023-01-29T17:53:44.924Z,64.80
2023-01-29T17:56:18.502Z,64.80
2023-01-29T17:58:47.302Z,65.00
2023-01-29T18:01:17.027Z,65.20
2023-01-29T18:03:45.463Z,65.40
2023-01-29T18:06:21.561Z,65.90
2023-01-29T18:08:49.902Z,65.90
2023-01-29T18:11:18.209Z,66.30
2023-01-29T18:13:46.582Z,66.50
2023-01-29T18:16:18.367Z,66.50
2023-01-29T18:18:46.784Z,66.40
2023-01-29T18:21:15.085Z,66.60
2023-01-29T18:23:43.376Z,66.60
2023-01-29T18:26:12.812Z,66.60
2023-01-29T18:28:43.612Z,66.10
2023-01-29T18:31:13.951Z,65.90
2023-01-29T18:33:44.064Z,66.40
2023-01-29T18:36:12.469Z,66.40
2023-01-29T18:38:41.062Z,66.50
2023-01-29T18:41:11.441Z,66.80
2023-01-29T18:43:40.987Z,67.20
2023-01-29T18:46:10.229Z,67.10
2023-01-29T18:48:39.942Z,67.40
2023-01-29T18:51:11.450Z,67.60
2023-01-29T18:53:39.815Z,68.00
2023-01-29T18:56:09.132Z,68.20
2023-01-29T18:58:38.397Z,68.20
2023-01-29T19:01:09.817Z,68.50
2023-01-29T19:03:39.093Z,68.60
2023-01-29T19:06:09.300Z,68.60
2023-01-29T19:08:39.802Z,68.70
2023-01-29T19:11:09.085Z,68.80
2023-01-29T19:13:38.419Z,68.90
2023-01-29T19:16:09.214Z,69.10
2023-01-29T19:18:39.047Z,69.30
2023-01-29T19:21:09.048Z,69.40
2023-01-29T19:23:39.542Z,69.50
2023-01-29T19:26:08.338Z,69.70
2023-01-29T19:28:36.989Z,69.70
2023-01-29T19:31:05.630Z,69.80
2023-01-29T19:33:34.185Z,69.90
2023-01-29T19:36:02.803Z,69.70
2023-01-29T19:38:33.661Z,69.90
2023-01-29T19:41:05.444Z,69.90
2023-01-29T19:43:36.473Z,69.70
2023-01-29T19:46:05.253Z,69.80
2023-01-29T19:48:34.224Z,69.70
2023-01-29T19:51:06.968Z,69.70
2023-01-29T19:53:36.576Z,69.70
2023-01-29T19:56:08.953Z,69.70
2023-01-29T19:58:38.906Z,69.70
2023-01-29T20:01:09.306Z,69.70
2023-01-29T20:03:39.391Z,69.70
2023-01-29T20:06:09.759Z,69.50
2023-01-29T20:08:38.968Z,69.70
2023-01-29T20:11:09.801Z,69.60
2023-01-29T20:13:38.158Z,69.60
2023-01-29T20:16:09.789Z,69.60
2023-01-29T20:18:38.642Z,69.70
2023-01-29T20:21:09.627Z,69.60
2023-01-29T20:23:39.248Z,69.70
2023-01-29T20:26:13.211Z,69.80
2023-01-29T20:28:43.572Z,69.70
2023-01-29T20:31:12.407Z,69.70
2023-01-29T20:33:41.718Z,69.70
2023-01-29T20:36:12.413Z,69.60
2023-01-29T20:38:41.092Z,69.60
2023-01-29T20:41:14.625Z,69.50
2023-01-29T20:43:43.592Z,69.70
2023-01-29T20:46:13.290Z,69.70
2023-01-29T20:48:43.076Z,69.60
2023-01-29T20:51:15.478Z,69.60
2023-01-29T20:53:45.571Z,69.50
2023-01-29T20:56:17.622Z,69.50
2023-01-29T20:58:47.433Z,69.50
2023-01-29T21:01:19.106Z,69.30
2023-01-29T21:03:48.485Z,70.10
2023-01-29T21:06:21.538Z,69.30
2023-01-29T21:08:50.329Z,69.40
2023-01-29T21:11:21.706Z,70.20
2023-01-29T21:13:53.510Z,69.50
2023-01-29T21:16:22.447Z,69.60
2023-01-29T21:18:52.011Z,69.80
2023-01-29T21:21:20.503Z,69.80
2023-01-29T21:23:49.579Z,70.30
2023-01-29T21:26:20.376Z,70.50
2023-01-29T21:28:49.641Z,69.60
2023-01-29T21:31:18.640Z,69.70
2023-01-29T21:33:48.293Z,69.80
2023-01-29T21:36:18.472Z,69.90
2023-01-29T21:38:46.831Z,69.80
2023-01-29T21:41:15.121Z,69.80
2023-01-29T21:43:45.504Z,69.90
2023-01-29T21:46:14.011Z,69.80
2023-01-29T21:48:42.608Z,69.80
2023-01-29T21:51:10.993Z,69.70
2023-01-29T21:53:39.270Z,69.80
2023-01-29T21:56:08.349Z,69.70
2023-01-29T21:58:36.948Z,69.80
2023-01-29T22:01:18.505Z,70.00
2023-01-29T22:03:55.814Z,69.90
2023-01-29T22:06:24.418Z,69.90
2023-01-29T22:08:52.899Z,69.90
2023-01-29T22:11:21.524Z,69.90
2023-01-29T22:13:49.834Z,69.90
2023-01-29T22:16:19.530Z,70.00
2023-01-29T22:18:47.973Z,70.80
2023-01-29T22:21:16.433Z,70.00
2023-01-29T22:23:45.426Z,69.90
2023-01-29T22:26:13.855Z,69.80
2023-01-29T22:28:42.612Z,70.50
2023-01-29T22:31:12.866Z,69.80
2023-01-29T22:33:42.982Z,69.80
2023-01-29T22:36:11.928Z,70.50
2023-01-29T22:38:40.283Z,69.80
2023-01-29T22:41:10.616Z,69.80
2023-01-29T22:43:39.354Z,69.80
2023-01-29T22:46:09.588Z,69.80
2023-01-29T22:48:37.906Z,69.80
2023-01-29T22:51:14.014Z,70.00
2023-01-29T22:53:44.741Z,69.80
2023-01-29T22:56:13.328Z,69.70
2023-01-29T22:58:42.337Z,69.80
2023-01-29T23:01:11.320Z,69.80
2023-01-29T23:03:39.693Z,69.90
2023-01-29T23:06:09.458Z,69.90
2023-01-29T23:08:37.803Z,70.00
2023-01-29T23:11:15.248Z,70.10
2023-01-29T23:13:45.179Z,70.40
2023-01-29T23:16:14.187Z,70.30
2023-01-29T23:18:43.043Z,70.30
2023-01-29T23:21:17.620Z,70.40
2023-01-29T23:23:45.894Z,70.20
2023-01-29T23:26:32.877Z,70.30
2023-01-29T23:29:01.514Z,70.30
2023-01-29T23:31:29.958Z,70.20
2023-01-29T23:33:58.809Z,70.50
2023-01-29T23:36:28.755Z,70.60
2023-01-29T23:38:57.026Z,70.60
2023-01-29T23:41:25.404Z,70.60
2023-01-29T23:43:54.122Z,70.60
2023-01-29T23:46:23.027Z,70.50
2023-01-29T23:48:51.440Z,70.50
2023-01-29T23:51:19.714Z,70.50
2023-01-29T23:53:49.546Z,70.50
2023-01-29T23:56:17.915Z,70.40
2023-01-29T23:58:46.393Z,70.60
